sensor_id;sensor_type;location;lat;lon;timestamp;pressure;altitude;pressure_sealevel;temperature;humidity
33153;BME280;19509;43.862;26.176;2023-05-20T00:00:02;101052.56;;;14.32;83.12
33153;BME280;19509;43.862;26.176;2023-05-20T00:02:28;101046.47;;;14.18;84.23
33153;BME280;19509;43.862;26.176;2023-05-20T00:04:53;101043.38;;;14.15;84.21
33153;BME280;19509;43.862;26.176;2023-05-20T00:07:19;101045.03;;;14.16;83.93
33153;BME280;19509;43.862;26.176;2023-05-20T00:09:44;101046.91;;;14.15;83.77
33153;BME280;19509;43.862;26.176;2023-05-20T00:12:10;101039.28;;;14.06;83.62
33153;BME280;19509;43.862;26.176;2023-05-20T00:14:35;101042.59;;;14.08;83.07
33153;BME280;19509;43.862;26.176;2023-05-20T00:17:01;101049.09;;;14.07;83.50
33153;BME280;19509;43.862;26.176;2023-05-20T00:19:26;101037.34;;;14.13;82.87
33153;BME280;19509;43.862;26.176;2023-05-20T00:21:52;101041.28;;;14.17;82.56
33153;BME280;19509;43.862;26.176;2023-05-20T00:24:17;101041.22;;;14.24;82.31
33153;BME280;19509;43.862;26.176;2023-05-20T00:26:43;101036.50;;;14.37;82.32
33153;BME280;19509;43.862;26.176;2023-05-20T00:29:08;101037.97;;;14.33;82.15
33153;BME280;19509;43.862;26.176;2023-05-20T00:31:34;101032.25;;;14.23;82.18
33153;BME280;19509;43.862;26.176;2023-05-20T00:33:59;101036.00;;;14.22;83.16
33153;BME280;19509;43.862;26.176;2023-05-20T00:36:25;101037.97;;;14.15;83.30
33153;BME280;19509;43.862;26.176;2023-05-20T00:38:51;101041.50;;;14.15;83.22
33153;BME280;19509;43.862;26.176;2023-05-20T00:41:17;101031.59;;;14.03;83.77
33153;BME280;19509;43.862;26.176;2023-05-20T00:43:42;101033.03;;;14.05;84.23
33153;BME280;19509;43.862;26.176;2023-05-20T00:46:08;101033.78;;;13.94;84.77
33153;BME280;19509;43.862;26.176;2023-05-20T00:48:43;101018.16;;;13.96;84.62
33153;BME280;19509;43.862;26.176;2023-05-20T00:51:10;101027.50;;;14.00;84.32
33153;BME280;19509;43.862;26.176;2023-05-20T00:53:37;101012.22;;;14.06;83.87
33153;BME280;19509;43.862;26.176;2023-05-20T00:56:03;101009.91;;;14.09;84.07
33153;BME280;19509;43.862;26.176;2023-05-20T00:58:30;101015.03;;;13.92;84.66
33153;BME280;19509;43.862;26.176;2023-05-20T01:00:56;101011.56;;;13.85;84.77
33153;BME280;19509;43.862;26.176;2023-05-20T01:03:21;101010.09;;;13.89;85.25
33153;BME280;19509;43.862;26.176;2023-05-20T01:05:47;101001.16;;;13.64;84.93
33153;BME280;19509;43.862;26.176;2023-05-20T01:08:12;101005.84;;;13.50;85.25
33153;BME280;19509;43.862;26.176;2023-05-20T01:10:41;101014.66;;;13.39;85.88
33153;BME280;19509;43.862;26.176;2023-05-20T01:13:10;101015.81;;;13.49;85.81
33153;BME280;19509;43.862;26.176;2023-05-20T01:15:39;101017.72;;;13.49;86.82
33153;BME280;19509;43.862;26.176;2023-05-20T01:18:07;101016.19;;;13.28;87.46
33153;BME280;19509;43.862;26.176;2023-05-20T01:20:35;101025.94;;;13.29;87.74
33153;BME280;19509;43.862;26.176;2023-05-20T01:23:02;101018.22;;;13.33;87.44
33153;BME280;19509;43.862;26.176;2023-05-20T01:25:28;101028.81;;;13.34;87.09
33153;BME280;19509;43.862;26.176;2023-05-20T01:27:55;101017.56;;;13.37;87.63
33153;BME280;19509;43.862;26.176;2023-05-20T01:30:29;101021.38;;;13.30;88.11
33153;BME280;19509;43.862;26.176;2023-05-20T01:33:03;101016.78;;;13.30;87.97
33153;BME280;19509;43.862;26.176;2023-05-20T01:35:29;101026.50;;;13.38;88.00
33153;BME280;19509;43.862;26.176;2023-05-20T01:37:56;101022.16;;;13.37;87.55
33153;BME280;19509;43.862;26.176;2023-05-20T01:40:23;101023.38;;;13.41;87.72
33153;BME280;19509;43.862;26.176;2023-05-20T01:42:49;101018.53;;;13.49;87.66
33153;BME280;19509;43.862;26.176;2023-05-20T01:45:17;101030.22;;;13.43;87.87
33153;BME280;19509;43.862;26.176;2023-05-20T01:47:46;101028.84;;;13.28;88.63
33153;BME280;19509;43.862;26.176;2023-05-20T01:50:11;101015.50;;;13.39;87.88
33153;BME280;19509;43.862;26.176;2023-05-20T01:52:37;101022.19;;;13.30;88.25
33153;BME280;19509;43.862;26.176;2023-05-20T01:55:03;101025.28;;;13.34;88.13
33153;BME280;19509;43.862;26.176;2023-05-20T01:57:28;101019.41;;;13.43;87.99
33153;BME280;19509;43.862;26.176;2023-05-20T01:59:54;101029.28;;;13.24;87.88
33153;BME280;19509;43.862;26.176;2023-05-20T02:02:19;101022.22;;;13.17;88.56
33153;BME280;19509;43.862;26.176;2023-05-20T02:04:47;101025.13;;;13.22;89.34
33153;BME280;19509;43.862;26.176;2023-05-20T02:07:14;101027.00;;;13.21;89.04
33153;BME280;19509;43.862;26.176;2023-05-20T02:09:39;101032.84;;;13.25;87.98
33153;BME280;19509;43.862;26.176;2023-05-20T02:12:06;101033.13;;;13.03;88.67
33153;BME280;19509;43.862;26.176;2023-05-20T02:14:31;101027.53;;;12.98;89.67
33153;BME280;19509;43.862;26.176;2023-05-20T02:16:57;101028.13;;;13.00;90.49
33153;BME280;19509;43.862;26.176;2023-05-20T02:19:22;101027.53;;;12.98;89.45
33153;BME280;19509;43.862;26.176;2023-05-20T02:21:49;101029.25;;;12.86;89.87
33153;BME280;19509;43.862;26.176;2023-05-20T02:24:15;101032.19;;;12.85;90.17
33153;BME280;19509;43.862;26.176;2023-05-20T02:26:40;101028.06;;;12.75;90.43
33153;BME280;19509;43.862;26.176;2023-05-20T02:29:06;101039.19;;;12.92;90.10
33153;BME280;19509;43.862;26.176;2023-05-20T02:31:32;101041.53;;;12.82;89.41
33153;BME280;19509;43.862;26.176;2023-05-20T02:33:58;101039.25;;;12.79;90.12
33153;BME280;19509;43.862;26.176;2023-05-20T02:36:23;101038.84;;;12.75;91.06
33153;BME280;19509;43.862;26.176;2023-05-20T02:38:49;101031.97;;;12.79;90.42
33153;BME280;19509;43.862;26.176;2023-05-20T02:41:15;101040.31;;;12.78;89.65
33153;BME280;19509;43.862;26.176;2023-05-20T02:43:41;101032.25;;;12.65;90.33
33153;BME280;19509;43.862;26.176;2023-05-20T02:46:08;101038.44;;;12.78;88.90
33153;BME280;19509;43.862;26.176;2023-05-20T02:48:34;101040.13;;;12.66;90.53
33153;BME280;19509;43.862;26.176;2023-05-20T02:51:00;101047.41;;;12.66;90.95
33153;BME280;19509;43.862;26.176;2023-05-20T02:53:25;101044.94;;;12.58;90.89
33153;BME280;19509;43.862;26.176;2023-05-20T02:55:51;101050.13;;;12.59;90.66
33153;BME280;19509;43.862;26.176;2023-05-20T02:58:16;101055.75;;;12.51;90.54
33153;BME280;19509;43.862;26.176;2023-05-20T03:00:42;101051.59;;;12.48;90.50
33153;BME280;19509;43.862;26.176;2023-05-20T03:03:08;101053.53;;;12.28;91.03
33153;BME280;19509;43.862;26.176;2023-05-20T03:05:37;101054.34;;;12.22;91.70
33153;BME280;19509;43.862;26.176;2023-05-20T03:08:10;101055.38;;;12.34;91.72
33153;BME280;19509;43.862;26.176;2023-05-20T03:10:37;101054.94;;;12.44;90.59
33153;BME280;19509;43.862;26.176;2023-05-20T03:13:04;101058.25;;;12.39;91.33
33153;BME280;19509;43.862;26.176;2023-05-20T03:15:42;101064.06;;;12.43;91.47
33153;BME280;19509;43.862;26.176;2023-05-20T03:18:09;101069.06;;;12.46;91.00
33153;BME280;19509;43.862;26.176;2023-05-20T03:20:35;101064.28;;;12.41;90.80
33153;BME280;19509;43.862;26.176;2023-05-20T03:23:04;101067.81;;;12.48;90.92
33153;BME280;19509;43.862;26.176;2023-05-20T03:25:30;101065.50;;;12.52;90.71
33153;BME280;19509;43.862;26.176;2023-05-20T03:27:56;101063.63;;;12.59;90.26
33153;BME280;19509;43.862;26.176;2023-05-20T03:30:23;101064.81;;;12.70;90.05
33153;BME280;19509;43.862;26.176;2023-05-20T03:32:49;101072.72;;;12.78;89.40
33153;BME280;19509;43.862;26.176;2023-05-20T03:35:15;101075.41;;;12.85;89.10
33153;BME280;19509;43.862;26.176;2023-05-20T03:37:40;101071.38;;;12.94;89.66
33153;BME280;19509;43.862;26.176;2023-05-20T03:40:07;101078.44;;;13.01;89.38
33153;BME280;19509;43.862;26.176;2023-05-20T03:42:34;101075.28;;;13.11;89.42
33153;BME280;19509;43.862;26.176;2023-05-20T03:45:00;101074.22;;;13.25;89.12
33153;BME280;19509;43.862;26.176;2023-05-20T03:47:26;101078.97;;;13.23;88.96
33153;BME280;19509;43.862;26.176;2023-05-20T03:49:52;101070.03;;;13.23;89.16
33153;BME280;19509;43.862;26.176;2023-05-20T03:52:17;101078.78;;;13.25;89.30
33153;BME280;19509;43.862;26.176;2023-05-20T03:54:43;101080.00;;;13.29;89.13
33153;BME280;19509;43.862;26.176;2023-05-20T03:57:08;101091.81;;;13.35;89.00
33153;BME280;19509;43.862;26.176;2023-05-20T03:59:37;101089.34;;;13.33;88.87
33153;BME280;19509;43.862;26.176;2023-05-20T04:02:03;101092.41;;;13.43;88.09
33153;BME280;19509;43.862;26.176;2023-05-20T04:04:29;101091.88;;;13.60;88.50
33153;BME280;19509;43.862;26.176;2023-05-20T04:06:54;101090.41;;;13.64;88.43
33153;BME280;19509;43.862;26.176;2023-05-20T04:09:21;101084.69;;;13.47;88.30
33153;BME280;19509;43.862;26.176;2023-05-20T04:11:47;101091.34;;;13.44;88.42
33153;BME280;19509;43.862;26.176;2023-05-20T04:14:12;101082.13;;;13.59;89.16
33153;BME280;19509;43.862;26.176;2023-05-20T04:16:38;101085.34;;;13.74;88.21
33153;BME280;19509;43.862;26.176;2023-05-20T04:19:04;101089.97;;;13.92;86.27
33153;BME280;19509;43.862;26.176;2023-05-20T04:21:29;101084.91;;;13.77;87.77
33153;BME280;19509;43.862;26.176;2023-05-20T04:23:56;101091.47;;;13.88;87.46
33153;BME280;19509;43.862;26.176;2023-05-20T04:26:21;101096.63;;;13.96;87.80
33153;BME280;19509;43.862;26.176;2023-05-20T04:28:47;101092.06;;;13.96;87.82
33153;BME280;19509;43.862;26.176;2023-05-20T04:31:15;101093.63;;;14.29;86.82
33153;BME280;19509;43.862;26.176;2023-05-20T04:33:41;101097.53;;;14.58;85.67
33153;BME280;19509;43.862;26.176;2023-05-20T04:36:10;101100.69;;;14.74;85.17
33153;BME280;19509;43.862;26.176;2023-05-20T04:38:39;101104.06;;;15.24;82.96
33153;BME280;19509;43.862;26.176;2023-05-20T04:41:06;101102.00;;;15.38;82.26
33153;BME280;19509;43.862;26.176;2023-05-20T04:43:32;101111.16;;;15.55;82.39
33153;BME280;19509;43.862;26.176;2023-05-20T04:45:59;101114.63;;;15.63;82.35
33153;BME280;19509;43.862;26.176;2023-05-20T04:48:25;101114.13;;;15.66;82.88
33153;BME280;19509;43.862;26.176;2023-05-20T04:50:51;101120.13;;;15.56;83.44
33153;BME280;19509;43.862;26.176;2023-05-20T04:53:17;101114.44;;;15.46;83.95
33153;BME280;19509;43.862;26.176;2023-05-20T04:55:44;101123.28;;;15.71;83.72
33153;BME280;19509;43.862;26.176;2023-05-20T04:58:10;101125.31;;;15.88;82.32
33153;BME280;19509;43.862;26.176;2023-05-20T05:00:42;101133.06;;;16.49;81.51
33153;BME280;19509;43.862;26.176;2023-05-20T05:03:08;101126.63;;;17.55;77.49
33153;BME280;19509;43.862;26.176;2023-05-20T05:05:34;101125.88;;;17.88;73.18
33153;BME280;19509;43.862;26.176;2023-05-20T05:08:04;101121.34;;;17.65;74.39
33153;BME280;19509;43.862;26.176;2023-05-20T05:10:30;101129.03;;;17.96;72.98
33153;BME280;19509;43.862;26.176;2023-05-20T05:12:56;101120.69;;;18.20;72.57
33153;BME280;19509;43.862;26.176;2023-05-20T05:15:21;101128.63;;;18.05;72.44
33153;BME280;19509;43.862;26.176;2023-05-20T05:17:47;101137.41;;;17.49;75.26
33153;BME280;19509;43.862;26.176;2023-05-20T05:20:12;101136.47;;;17.15;78.12
33153;BME280;19509;43.862;26.176;2023-05-20T05:22:38;101132.00;;;16.97;79.99
33153;BME280;19509;43.862;26.176;2023-05-20T05:25:06;101132.13;;;16.91;79.85
33153;BME280;19509;43.862;26.176;2023-05-20T05:27:32;101136.88;;;16.84;79.77
33153;BME280;19509;43.862;26.176;2023-05-20T05:29:58;101130.59;;;16.83;80.37
33153;BME280;19509;43.862;26.176;2023-05-20T05:32:23;101130.56;;;16.95;80.70
33153;BME280;19509;43.862;26.176;2023-05-20T05:34:49;101132.69;;;17.05;80.17
33153;BME280;19509;43.862;26.176;2023-05-20T05:37:15;101129.97;;;17.05;80.41
33153;BME280;19509;43.862;26.176;2023-05-20T05:39:40;101125.38;;;17.05;80.83
33153;BME280;19509;43.862;26.176;2023-05-20T05:42:06;101131.59;;;17.17;81.88
33153;BME280;19509;43.862;26.176;2023-05-20T05:44:31;101130.50;;;16.78;82.48
33153;BME280;19509;43.862;26.176;2023-05-20T05:46:57;101128.34;;;16.68;82.88
33153;BME280;19509;43.862;26.176;2023-05-20T05:49:22;101118.78;;;16.77;83.56
33153;BME280;19509;43.862;26.176;2023-05-20T05:51:49;101110.75;;;16.83;82.64
33153;BME280;19509;43.862;26.176;2023-05-20T05:54:14;101122.19;;;16.73;83.83
33153;BME280;19509;43.862;26.176;2023-05-20T05:56:40;101116.31;;;16.76;82.65
33153;BME280;19509;43.862;26.176;2023-05-20T05:59:05;101128.97;;;16.82;82.93
33153;BME280;19509;43.862;26.176;2023-05-20T06:01:31;101137.69;;;16.72;81.99
33153;BME280;19509;43.862;26.176;2023-05-20T06:03:56;101147.94;;;16.47;84.66
33153;BME280;19509;43.862;26.176;2023-05-20T06:06:22;101149.03;;;16.69;84.05
33153;BME280;19509;43.862;26.176;2023-05-20T06:08:48;101151.03;;;17.09;83.53
33153;BME280;19509;43.862;26.176;2023-05-20T06:11:13;101151.56;;;17.23;83.92
33153;BME280;19509;43.862;26.176;2023-05-20T06:13:39;101147.66;;;17.59;82.03
33153;BME280;19509;43.862;26.176;2023-05-20T06:16:04;101157.22;;;17.62;82.79
33153;BME280;19509;43.862;26.176;2023-05-20T06:18:30;101162.25;;;17.82;82.04
33153;BME280;19509;43.862;26.176;2023-05-20T06:20:56;101162.59;;;17.85;75.85
33153;BME280;19509;43.862;26.176;2023-05-20T06:23:22;101156.06;;;17.58;74.95
33153;BME280;19509;43.862;26.176;2023-05-20T06:25:48;101143.47;;;17.80;75.10
33153;BME280;19509;43.862;26.176;2023-05-20T06:28:14;101151.31;;;17.93;71.13
33153;BME280;19509;43.862;26.176;2023-05-20T06:30:40;101136.38;;;18.13;72.13
33153;BME280;19509;43.862;26.176;2023-05-20T06:33:06;101139.56;;;17.93;72.46
33153;BME280;19509;43.862;26.176;2023-05-20T06:35:31;101135.22;;;17.92;70.49
33153;BME280;19509;43.862;26.176;2023-05-20T06:38:00;101136.47;;;17.72;73.16
33153;BME280;19509;43.862;26.176;2023-05-20T06:40:29;101136.88;;;18.10;70.21
33153;BME280;19509;43.862;26.176;2023-05-20T06:42:54;101137.47;;;18.12;72.26
33153;BME280;19509;43.862;26.176;2023-05-20T06:45:20;101142.00;;;18.06;71.26
33153;BME280;19509;43.862;26.176;2023-05-20T06:47:46;101135.06;;;18.32;71.45
33153;BME280;19509;43.862;26.176;2023-05-20T06:50:13;101126.94;;;18.37;69.65
33153;BME280;19509;43.862;26.176;2023-05-20T06:52:38;101123.16;;;18.55;71.30
33153;BME280;19509;43.862;26.176;2023-05-20T06:55:04;101124.81;;;18.56;69.39
33153;BME280;19509;43.862;26.176;2023-05-20T06:57:30;101130.91;;;18.47;70.02
33153;BME280;19509;43.862;26.176;2023-05-20T06:59:55;101125.47;;;18.30;71.61
33153;BME280;19509;43.862;26.176;2023-05-20T07:02:21;101120.78;;;18.25;72.44
33153;BME280;19509;43.862;26.176;2023-05-20T07:04:47;101109.47;;;18.16;71.80
33153;BME280;19509;43.862;26.176;2023-05-20T07:07:13;101097.84;;;17.87;72.62
33153;BME280;19509;43.862;26.176;2023-05-20T07:09:38;101091.97;;;17.95;72.85
33153;BME280;19509;43.862;26.176;2023-05-20T07:12:04;101078.28;;;18.07;72.18
33153;BME280;19509;43.862;26.176;2023-05-20T07:14:30;101082.00;;;18.18;71.79
33153;BME280;19509;43.862;26.176;2023-05-20T07:16:56;101083.31;;;18.15;71.83
33153;BME280;19509;43.862;26.176;2023-05-20T07:19:22;101091.97;;;18.12;72.76
33153;BME280;19509;43.862;26.176;2023-05-20T07:21:47;101083.00;;;18.12;72.87
33153;BME280;19509;43.862;26.176;2023-05-20T07:24:15;101075.41;;;18.14;73.14
33153;BME280;19509;43.862;26.176;2023-05-20T07:26:40;101074.31;;;18.15;72.24
33153;BME280;19509;43.862;26.176;2023-05-20T07:29:06;101060.88;;;18.08;72.91
33153;BME280;19509;43.862;26.176;2023-05-20T07:31:32;101059.78;;;18.09;73.45
33153;BME280;19509;43.862;26.176;2023-05-20T07:33:57;101045.59;;;18.07;72.95
33153;BME280;19509;43.862;26.176;2023-05-20T07:36:28;101045.19;;;17.99;73.41
33153;BME280;19509;43.862;26.176;2023-05-20T07:38:54;101055.25;;;17.81;75.15
33153;BME280;19509;43.862;26.176;2023-05-20T07:41:20;101054.84;;;17.89;77.30
33153;BME280;19509;43.862;26.176;2023-05-20T07:43:46;101047.91;;;17.99;75.70
33153;BME280;19509;43.862;26.176;2023-05-20T07:46:12;101055.47;;;18.13;73.43
33153;BME280;19509;43.862;26.176;2023-05-20T07:48:38;101045.69;;;18.12;73.87
33153;BME280;19509;43.862;26.176;2023-05-20T07:51:03;101043.75;;;18.30;73.34
33153;BME280;19509;43.862;26.176;2023-05-20T07:53:29;101022.81;;;18.52;73.60
33153;BME280;19509;43.862;26.176;2023-05-20T07:55:54;101028.09;;;18.81;73.49
33153;BME280;19509;43.862;26.176;2023-05-20T07:58:20;101036.66;;;18.89;72.66
33153;BME280;19509;43.862;26.176;2023-05-20T08:00:46;101052.84;;;18.96;72.35
33153;BME280;19509;43.862;26.176;2023-05-20T08:03:13;101063.53;;;18.81;73.15
33153;BME280;19509;43.862;26.176;2023-05-20T08:05:40;101077.00;;;18.87;73.18
33153;BME280;19509;43.862;26.176;2023-05-20T08:08:05;101099.63;;;18.88;73.24
33153;BME280;19509;43.862;26.176;2023-05-20T08:10:31;101102.50;;;18.76;72.33
33153;BME280;19509;43.862;26.176;2023-05-20T08:12:57;101113.13;;;18.61;75.00
33153;BME280;19509;43.862;26.176;2023-05-20T08:15:22;101128.13;;;18.58;77.33
33153;BME280;19509;43.862;26.176;2023-05-20T08:17:48;101127.06;;;18.42;73.08
33153;BME280;19509;43.862;26.176;2023-05-20T08:20:13;101136.97;;;18.49;74.03
33153;BME280;19509;43.862;26.176;2023-05-20T08:22:39;101129.56;;;18.66;74.55
33153;BME280;19509;43.862;26.176;2023-05-20T08:25:08;101139.34;;;19.01;73.46
33153;BME280;19509;43.862;26.176;2023-05-20T08:27:35;101134.22;;;19.04;67.42
33153;BME280;19509;43.862;26.176;2023-05-20T08:30:01;101132.56;;;19.03;69.23
33153;BME280;19509;43.862;26.176;2023-05-20T08:32:27;101124.53;;;18.75;65.62
33153;BME280;19509;43.862;26.176;2023-05-20T08:34:52;101127.97;;;18.87;66.00
33153;BME280;19509;43.862;26.176;2023-05-20T08:37:18;101138.91;;;19.31;63.92
33153;BME280;19509;43.862;26.176;2023-05-20T08:39:44;101120.13;;;19.61;64.70
33153;BME280;19509;43.862;26.176;2023-05-20T08:42:12;101132.88;;;19.78;60.22
33153;BME280;19509;43.862;26.176;2023-05-20T08:44:39;101125.50;;;20.05;59.58
33153;BME280;19509;43.862;26.176;2023-05-20T08:47:06;101124.91;;;20.03;62.45
33153;BME280;19509;43.862;26.176;2023-05-20T08:49:32;101117.69;;;20.57;60.72
33153;BME280;19509;43.862;26.176;2023-05-20T08:51:59;101122.50;;;20.87;55.68
33153;BME280;19509;43.862;26.176;2023-05-20T08:54:29;101114.22;;;20.71;58.75
33153;BME280;19509;43.862;26.176;2023-05-20T08:56:58;101115.94;;;20.88;58.01
33153;BME280;19509;43.862;26.176;2023-05-20T08:59:25;101116.63;;;21.20;56.16
33153;BME280;19509;43.862;26.176;2023-05-20T09:01:51;101119.28;;;21.00;59.54
33153;BME280;19509;43.862;26.176;2023-05-20T09:04:17;101106.16;;;20.97;58.18
33153;BME280;19509;43.862;26.176;2023-05-20T09:06:46;101109.69;;;20.97;56.99
33153;BME280;19509;43.862;26.176;2023-05-20T09:09:12;101107.28;;;21.11;60.05
33153;BME280;19509;43.862;26.176;2023-05-20T09:11:42;101107.41;;;21.42;58.61
33153;BME280;19509;43.862;26.176;2023-05-20T09:14:07;101100.59;;;21.44;58.54
33153;BME280;19509;43.862;26.176;2023-05-20T09:16:33;101105.09;;;21.03;58.67
33153;BME280;19509;43.862;26.176;2023-05-20T09:18:59;101098.19;;;20.90;57.90
33153;BME280;19509;43.862;26.176;2023-05-20T09:21:28;101095.19;;;20.97;58.65
33153;BME280;19509;43.862;26.176;2023-05-20T09:23:55;101080.78;;;21.22;58.98
33153;BME280;19509;43.862;26.176;2023-05-20T09:26:30;101088.53;;;21.56;57.84
33153;BME280;19509;43.862;26.176;2023-05-20T09:28:56;101076.25;;;21.79;57.88
33153;BME280;19509;43.862;26.176;2023-05-20T09:31:26;101078.16;;;21.78;57.37
33153;BME280;19509;43.862;26.176;2023-05-20T09:33:53;101069.84;;;21.27;58.96
33153;BME280;19509;43.862;26.176;2023-05-20T09:36:19;101075.41;;;21.58;59.90
33153;BME280;19509;43.862;26.176;2023-05-20T09:38:50;101072.09;;;21.40;59.42
33153;BME280;19509;43.862;26.176;2023-05-20T09:41:17;101067.03;;;20.96;59.72
33153;BME280;19509;43.862;26.176;2023-05-20T09:43:46;101062.88;;;20.84;59.54
33153;BME280;19509;43.862;26.176;2023-05-20T09:46:12;101060.84;;;20.64;60.43
33153;BME280;19509;43.862;26.176;2023-05-20T09:48:38;101062.03;;;20.88;61.33
33153;BME280;19509;43.862;26.176;2023-05-20T09:51:05;101059.88;;;20.95;61.38
33153;BME280;19509;43.862;26.176;2023-05-20T09:53:31;101061.56;;;21.01;59.73
33153;BME280;19509;43.862;26.176;2023-05-20T09:55:57;101050.59;;;21.01;60.08
33153;BME280;19509;43.862;26.176;2023-05-20T09:58:24;101050.88;;;21.05;59.54
33153;BME280;19509;43.862;26.176;2023-05-20T10:00:50;101055.25;;;20.96;60.38
33153;BME280;19509;43.862;26.176;2023-05-20T10:03:17;101044.81;;;20.88;61.44
33153;BME280;19509;43.862;26.176;2023-05-20T10:05:54;101039.38;;;20.98;59.88
33153;BME280;19509;43.862;26.176;2023-05-20T10:11:10;101025.19;;;21.11;59.51
33153;BME280;19509;43.862;26.176;2023-05-20T10:14:08;101034.03;;;21.49;59.29
33153;BME280;19509;43.862;26.176;2023-05-20T10:16:59;101032.38;;;22.09;57.66
33153;BME280;19509;43.862;26.176;2023-05-20T10:19:32;101027.97;;;22.39;57.92
33153;BME280;19509;43.862;26.176;2023-05-20T10:22:04;101023.31;;;22.34;57.25
33153;BME280;19509;43.862;26.176;2023-05-20T10:24:40;101015.22;;;22.74;58.71
33153;BME280;19509;43.862;26.176;2023-05-20T10:27:11;101010.53;;;23.29;55.34
33153;BME280;19509;43.862;26.176;2023-05-20T10:32:11;101014.75;;;23.16;54.60
33153;BME280;19509;43.862;26.176;2023-05-20T10:34:48;101001.91;;;23.46;54.23
33153;BME280;19509;43.862;26.176;2023-05-20T10:37:28;100998.47;;;23.98;53.68
33153;BME280;19509;43.862;26.176;2023-05-20T10:40:11;100984.28;;;23.18;54.10
33153;BME280;19509;43.862;26.176;2023-05-20T10:42:38;100981.72;;;23.31;52.74
33153;BME280;19509;43.862;26.176;2023-05-20T10:45:04;100974.78;;;23.39;54.09
33153;BME280;19509;43.862;26.176;2023-05-20T10:47:31;100979.94;;;23.46;50.70
33153;BME280;19509;43.862;26.176;2023-05-20T10:49:57;100975.66;;;23.64;52.99
33153;BME280;19509;43.862;26.176;2023-05-20T10:52:23;100963.34;;;24.19;52.05
33153;BME280;19509;43.862;26.176;2023-05-20T10:57:17;100952.69;;;24.98;49.76
33153;BME280;19509;43.862;26.176;2023-05-20T10:59:43;100944.09;;;24.62;51.41
33153;BME280;19509;43.862;26.176;2023-05-20T11:02:09;100944.06;;;23.95;48.94
33153;BME280;19509;43.862;26.176;2023-05-20T11:04:37;100936.75;;;23.86;50.99
33153;BME280;19509;43.862;26.176;2023-05-20T11:07:03;100934.72;;;24.44;52.96
33153;BME280;19509;43.862;26.176;2023-05-20T11:09:29;100923.75;;;25.01;47.75
33153;BME280;19509;43.862;26.176;2023-05-20T11:11:56;100920.69;;;25.02;45.01
33153;BME280;19509;43.862;26.176;2023-05-20T11:14:22;100917.03;;;24.88;49.11
33153;BME280;19509;43.862;26.176;2023-05-20T11:16:51;100916.50;;;24.24;48.09
33153;BME280;19509;43.862;26.176;2023-05-20T11:19:17;100913.16;;;24.27;47.36
33153;BME280;19509;43.862;26.176;2023-05-20T11:21:44;100919.34;;;24.19;46.70
33153;BME280;19509;43.862;26.176;2023-05-20T11:24:11;100914.41;;;24.16;47.83
33153;BME280;19509;43.862;26.176;2023-05-20T11:26:37;100898.16;;;25.00;46.22
33153;BME280;19509;43.862;26.176;2023-05-20T11:29:03;100893.03;;;25.59;44.32
33153;BME280;19509;43.862;26.176;2023-05-20T11:31:29;100889.53;;;25.40;46.66
33153;BME280;19509;43.862;26.176;2023-05-20T11:33:57;100890.63;;;24.68;50.04
33153;BME280;19509;43.862;26.176;2023-05-20T11:36:26;100883.84;;;24.42;48.03
33153;BME280;19509;43.862;26.176;2023-05-20T11:38:53;100881.88;;;24.23;52.58
33153;BME280;19509;43.862;26.176;2023-05-20T11:41:25;100877.03;;;24.15;49.49
33153;BME280;19509;43.862;26.176;2023-05-20T11:43:58;100872.41;;;24.11;49.82
33153;BME280;19509;43.862;26.176;2023-05-20T11:46:24;100882.19;;;23.98;48.21
33153;BME280;19509;43.862;26.176;2023-05-20T11:48:56;100872.38;;;23.92;50.05
33153;BME280;19509;43.862;26.176;2023-05-20T11:51:28;100868.72;;;24.20;51.32
33153;BME280;19509;43.862;26.176;2023-05-20T11:54:01;100860.19;;;24.97;49.30
33153;BME280;19509;43.862;26.176;2023-05-20T11:56:33;100864.97;;;24.92;45.95
33153;BME280;19509;43.862;26.176;2023-05-20T11:59:00;100848.00;;;25.04;44.83
33153;BME280;19509;43.862;26.176;2023-05-20T12:01:29;100852.16;;;24.82;49.78
33153;BME280;19509;43.862;26.176;2023-05-20T12:03:55;100849.75;;;24.43;47.83
33153;BME280;19509;43.862;26.176;2023-05-20T12:06:20;100847.84;;;24.19;52.59
33153;BME280;19509;43.862;26.176;2023-05-20T12:08:46;100843.19;;;23.67;51.22
33153;BME280;19509;43.862;26.176;2023-05-20T12:11:12;100847.94;;;23.37;47.82
33153;BME280;19509;43.862;26.176;2023-05-20T12:13:38;100844.31;;;23.42;47.65
33153;BME280;19509;43.862;26.176;2023-05-20T12:16:04;100850.34;;;23.09;49.34
33153;BME280;19509;43.862;26.176;2023-05-20T12:18:31;100850.13;;;23.35;50.17
33153;BME280;19509;43.862;26.176;2023-05-20T12:20:57;100848.66;;;24.39;48.16
33153;BME280;19509;43.862;26.176;2023-05-20T12:23:23;100842.53;;;24.47;45.30
33153;BME280;19509;43.862;26.176;2023-05-20T12:25:48;100834.78;;;24.68;46.51
33153;BME280;19509;43.862;26.176;2023-05-20T12:28:15;100833.66;;;24.88;45.92
33153;BME280;19509;43.862;26.176;2023-05-20T12:30:42;100834.19;;;24.71;42.53
33153;BME280;19509;43.862;26.176;2023-05-20T12:33:08;100820.66;;;24.74;45.04
33153;BME280;19509;43.862;26.176;2023-05-20T12:35:41;100823.25;;;24.66;49.56
33153;BME280;19509;43.862;26.176;2023-05-20T12:38:07;100813.91;;;24.48;46.62
33153;BME280;19509;43.862;26.176;2023-05-20T12:40:33;100806.31;;;24.59;45.17
33153;BME280;19509;43.862;26.176;2023-05-20T12:43:03;100796.50;;;24.52;42.87
33153;BME280;19509;43.862;26.176;2023-05-20T12:45:29;100800.22;;;24.43;45.79